createdAt,value
2018-01-07T00:00:15.279Z,60.1
2018-01-07T00:01:15.230Z,59.7
2018-01-07T00:02:15.160Z,59.6
2018-01-07T00:03:15.070Z,59.8
2018-01-07T00:04:15.023Z,59.6
2018-01-07T00:05:14.934Z,59.6
2018-01-07T00:06:14.863Z,59.6
2018-01-07T00:07:14.815Z,59.6
2018-01-07T00:08:14.746Z,59.8
2018-01-07T00:09:14.656Z,59.6
2018-01-07T00:10:14.588Z,59.7
2018-01-07T00:11:14.536Z,59.6
2018-01-07T00:12:14.449Z,59.7
2018-01-07T00:13:14.398Z,59.7
2018-01-07T00:14:14.334Z,59.6
2018-01-07T00:15:14.242Z,59.6
2018-01-07T00:16:14.175Z,59.6
2018-01-07T00:17:14.124Z,59.8
2018-01-07T00:18:14.055Z,59.6
2018-01-07T00:19:13.965Z,59.6
2018-01-07T00:20:13.918Z,59.6
2018-01-07T00:21:13.827Z,59.6
2018-01-07T00:22:13.763Z,59.6
2018-01-07T00:23:13.711Z,59.6
2018-01-07T00:24:13.643Z,59.6
2018-01-07T00:25:13.551Z,59.5
2018-01-07T00:26:13.483Z,59.5
2018-01-07T00:27:13.437Z,59.6
2018-01-07T00:28:13.363Z,59.5
2018-01-07T00:29:13.275Z,59.6
2018-01-07T00:30:13.207Z,59.5
2018-01-07T00:31:13.158Z,59.5
2018-01-07T00:32:13.090Z,59.5
2018-01-07T00:33:12.999Z,59.5
2018-01-07T00:34:12.930Z,59.4
2018-01-07T00:35:12.883Z,59.4
2018-01-07T00:36:12.793Z,59.4
2018-01-07T00:37:12.746Z,59.4
2018-01-07T00:38:12.674Z,59.4
2018-01-07T00:39:12.585Z,59.4
2018-01-07T00:40:12.515Z,59.4
2018-01-07T00:41:12.466Z,59.4
2018-01-07T00:42:12.398Z,59.4
2018-01-07T00:43:12.310Z,59.4
2018-01-07T00:44:12.260Z,59.4
2018-01-07T00:45:12.172Z,59.4
2018-01-07T00:46:12.107Z,59.4
2018-01-07T00:47:12.051Z,59.3
2018-01-07T00:48:11.982Z,59.4
2018-01-07T00:49:11.894Z,59.3
2018-01-07T00:50:11.828Z,59.3
2018-01-07T00:51:11.777Z,59.3
2018-01-07T00:52:11.687Z,59.3
2018-01-07T00:53:11.640Z,59.3
2018-01-07T00:54:11.568Z,59.3
2018-01-07T00:55:11.479Z,59.3
2018-01-07T00:56:11.410Z,59.3
2018-01-07T00:57:11.362Z,59.3
2018-01-07T00:58:11.290Z,59.3
2018-01-07T00:59:11.203Z,59.3
2018-01-07T01:00:11.133Z,59.3
2018-01-07T01:01:11.086Z,59
2018-01-07T01:02:11.013Z,58.8
2018-01-07T01:03:10.930Z,59.1
2018-01-07T01:04:10.856Z,58.8
2018-01-07T01:05:10.806Z,58.7
2018-01-07T01:06:10.741Z,58.9
2018-01-07T01:07:10.652Z,58.8
2018-01-07T01:08:10.600Z,58.9
2018-01-07T01:09:10.512Z,58.8
2018-01-07T01:10:10.447Z,58.9
2018-01-07T01:11:10.397Z,58.8
2018-01-07T01:12:10.325Z,58.8
2018-01-07T01:13:10.235Z,59
2018-01-07T01:14:10.169Z,58.8
2018-01-07T01:15:10.116Z,58.8
2018-01-07T01:16:10.033Z,58.8
2018-01-07T01:17:09.978Z,58.8
2018-01-07T01:18:09.911Z,58.9
2018-01-07T01:19:09.821Z,58.8
2018-01-07T01:20:09.752Z,58.8
2018-01-07T01:21:09.703Z,58.8
2018-01-07T01:22:09.633Z,58.8
2018-01-07T01:23:09.545Z,58.8
2018-01-07T01:24:09.496Z,58.8
2018-01-07T01:25:09.407Z,58.8
2018-01-07T01:26:09.337Z,58.8
2018-01-07T01:27:09.291Z,58.8
2018-01-07T01:28:09.218Z,58.8
2018-01-07T01:29:09.136Z,58.8
2018-01-07T01:30:09.061Z,58.8
2018-01-07T01:31:09.014Z,58.7
2018-01-07T01:32:08.942Z,58.8
2018-01-07T01:33:08.855Z,58.8
2018-01-07T01:34:08.784Z,58.7
2018-01-07T01:35:08.738Z,58.7
2018-01-07T01:36:08.666Z,58.7
2018-01-07T01:37:08.581Z,58.7
2018-01-07T01:38:08.508Z,58.7
2018-01-07T01:39:08.462Z,58.7
2018-01-07T01:40:08.373Z,58.7
2018-01-07T01:41:08.321Z,58.6
2018-01-07T01:42:08.249Z,58.7
2018-01-07T01:43:08.164Z,58.7
2018-01-07T01:44:08.093Z,58.6
2018-01-07T01:45:08.044Z,58.6
2018-01-07T01:46:07.976Z,58.6
2018-01-07T01:47:07.889Z,58.6
2018-01-07T01:48:07.838Z,58.6
2018-01-07T01:49:07.750Z,58.6
2018-01-07T01:50:07.679Z,58.6
2018-01-07T01:51:07.629Z,58.6
2018-01-07T01:52:07.560Z,58.6
2018-01-07T01:53:07.471Z,58.6
2018-01-07T01:54:07.402Z,58.6
2018-01-07T01:55:07.354Z,58.6
2018-01-07T01:56:07.265Z,58.6
2018-01-07T01:57:07.213Z,58.6
2018-01-07T01:58:07.148Z,58.6
2018-01-07T01:59:07.061Z,58.6
2018-01-07T02:00:06.988Z,58.5
2018-01-07T02:01:06.939Z,58.3
2018-01-07T02:02:06.869Z,58.1
2018-01-07T02:03:06.782Z,58.4
2018-01-07T02:04:06.711Z,58.1
2018-01-07T02:05:06.667Z,57.9
2018-01-07T02:06:06.592Z,58.2
2018-01-07T02:07:06.503Z,58
2018-01-07T02:08:06.439Z,58.3
2018-01-07T02:09:06.383Z,58.3
2018-01-07T02:10:06.317Z,58.1
2018-01-07T02:11:06.233Z,58.2
2018-01-07T02:12:06.176Z,58
2018-01-07T02:13:06.088Z,58.3
2018-01-07T02:14:06.021Z,58.2
2018-01-07T02:15:05.971Z,58.1
2018-01-07T02:16:05.905Z,58.1
2018-01-07T02:17:05.812Z,58.1
2018-01-07T02:18:05.745Z,58.3
2018-01-07T02:19:05.693Z,58.1
2018-01-07T02:20:05.605Z,58.1
2018-01-07T02:21:05.557Z,58.1
2018-01-07T02:22:05.488Z,58.1
2018-01-07T02:23:05.398Z,58.2
2018-01-07T02:24:05.330Z,58.1
2018-01-07T02:25:05.282Z,58.1
2018-01-07T02:26:05.210Z,58.1
2018-01-07T02:27:05.122Z,58.1
2018-01-07T02:28:05.073Z,58.1
2018-01-07T02:29:04.987Z,58.1
2018-01-07T02:30:04.915Z,58.1
2018-01-07T02:31:04.869Z,58.1
2018-01-07T02:32:04.796Z,58.1
2018-01-07T02:33:04.709Z,58.1
2018-01-07T02:34:04.644Z,58.1
2018-01-07T02:35:04.590Z,58.1
2018-01-07T02:36:04.500Z,58.1
2018-01-07T02:37:04.450Z,58
2018-01-07T02:38:04.383Z,58.1
2018-01-07T02:39:04.294Z,58
2018-01-07T02:40:04.224Z,58
2018-01-07T02:41:04.181Z,58
2018-01-07T02:42:04.104Z,58
2018-01-07T02:43:04.016Z,58
2018-01-07T02:44:03.971Z,58
2018-01-07T02:45:03.877Z,58
2018-01-07T02:46:03.809Z,58
2018-01-07T02:47:03.760Z,58
2018-01-07T02:48:03.690Z,58
2018-01-07T02:49:03.601Z,58
2018-01-07T02:50:03.532Z,58
2018-01-07T02:51:03.483Z,57.9
2018-01-07T02:52:03.394Z,58
2018-01-07T02:53:03.346Z,57.9
2018-01-07T02:54:03.276Z,57.9
2018-01-07T02:55:03.188Z,57.9
2018-01-07T02:56:03.118Z,57.9
2018-01-07T02:57:03.068Z,57.9
2018-01-07T02:58:03.001Z,57.9
2018-01-07T02:59:02.908Z,57.9
2018-01-07T03:00:02.859Z,57.9
2018-01-07T03:01:02.770Z,57.8
2018-01-07T03:02:02.702Z,57.4
2018-01-07T03:03:02.652Z,57.7
2018-01-07T03:04:02.585Z,57.6
2018-01-07T03:05:02.495Z,57.3
2018-01-07T03:06:02.425Z,57.6
2018-01-07T03:07:02.374Z,57.4
2018-01-07T03:08:02.311Z,57.6
2018-01-07T03:09:02.220Z,57.7
2018-01-07T03:10:02.155Z,57.5
2018-01-07T03:11:02.098Z,57.6
2018-01-07T03:12:02.031Z,57.4
2018-01-07T03:13:01.942Z,57.6
2018-01-07T03:14:01.872Z,57.7
2018-01-07T03:15:01.825Z,57.5
2018-01-07T03:16:01.735Z,57.5
2018-01-07T03:17:01.684Z,57.5
2018-01-07T03:18:01.616Z,57.5
2018-01-07T03:19:01.529Z,57.6
2018-01-07T03:20:01.458Z,57.4
2018-01-07T03:21:01.410Z,57.5
2018-01-07T03:22:01.338Z,57.5
2018-01-07T03:23:01.258Z,57.5
2018-01-07T03:24:01.204Z,57.6
2018-01-07T03:25:01.119Z,57.5
2018-01-07T03:26:01.044Z,57.5
2018-01-07T03:27:00.996Z,57.5
2018-01-07T03:28:00.925Z,57.4
2018-01-07T03:29:00.837Z,57.5
2018-01-07T03:30:00.769Z,57.4
2018-01-07T03:31:00.719Z,57.3
2018-01-07T03:32:00.628Z,56.8
2018-01-07T03:33:00.580Z,56.9
2018-01-07T03:34:00.509Z,57
2018-01-07T03:35:00.422Z,56.5
2018-01-07T03:36:00.356Z,56.8
2018-01-07T03:37:00.302Z,56.8
2018-01-07T03:38:00.234Z,56.8
2018-01-07T03:39:00.145Z,57
2018-01-07T03:40:00.080Z,56.8
2018-01-07T03:41:00.030Z,56.8
2018-01-07T03:41:59.958Z,56.8
2018-01-07T03:42:59.872Z,56.7
2018-01-07T03:43:59.801Z,57
2018-01-07T03:44:59.749Z,56.8
2018-01-07T03:45:59.682Z,56.8
2018-01-07T03:46:59.591Z,56.8
2018-01-07T03:47:59.543Z,56.8
2018-01-07T03:48:59.454Z,56.9
2018-01-07T03:49:59.384Z,56.8
2018-01-07T03:50:59.335Z,56.8
2018-01-07T03:51:59.263Z,56.9
2018-01-07T03:52:59.178Z,56.8
2018-01-07T03:53:59.110Z,56.8
2018-01-07T03:54:59.058Z,56.8
2018-01-07T03:55:58.968Z,56.8
2018-01-07T03:56:58.919Z,56.8
2018-01-07T03:57:58.849Z,56.8
2018-01-07T03:58:58.764Z,56.8
2018-01-07T03:59:58.691Z,56.8
2018-01-07T04:00:58.644Z,56.6
2018-01-07T04:01:58.574Z,56.3
2018-01-07T04:02:58.484Z,56.6
2018-01-07T04:03:58.433Z,56.6
2018-01-07T04:04:58.346Z,56.2
2018-01-07T04:05:58.276Z,56.4
2018-01-07T04:06:58.227Z,56.3
2018-01-07T04:07:58.157Z,56.4
2018-01-07T04:08:58.068Z,56.6
2018-01-07T04:09:57.999Z,56.4
2018-01-07T04:10:57.949Z,56.4
2018-01-07T04:11:57.880Z,56.4
2018-01-07T04:12:57.792Z,56.4
2018-01-07T04:13:57.722Z,56.6
2018-01-07T04:14:57.673Z,56.4
2018-01-07T04:15:57.602Z,56.4
2018-01-07T04:16:57.515Z,56.4
2018-01-07T04:17:57.445Z,56.4
2018-01-07T04:18:57.397Z,56.5
2018-01-07T04:19:57.309Z,56.4
2018-01-07T04:20:57.257Z,56.4
2018-01-07T04:21:57.190Z,56.4
2018-01-07T04:22:57.100Z,56.4
2018-01-07T04:23:57.030Z,56.4
2018-01-07T04:24:56.982Z,56.4
2018-01-07T04:25:56.911Z,56.4
2018-01-07T04:26:56.823Z,56.4
2018-01-07T04:27:56.775Z,56.4
2018-01-07T04:28:56.685Z,56.4
2018-01-07T04:29:56.615Z,56.4
2018-01-07T04:30:56.566Z,56.4
2018-01-07T04:31:56.499Z,56.4
2018-01-07T04:32:56.410Z,56.4
2018-01-07T04:33:56.339Z,56.4
2018-01-07T04:34:56.293Z,56.4
2018-01-07T04:35:56.203Z,56.3
2018-01-07T04:36:56.152Z,56.3
2018-01-07T04:37:56.083Z,56.3
2018-01-07T04:38:55.992Z,56.3
2018-01-07T04:39:55.924Z,56.3
2018-01-07T04:40:55.872Z,56.3
2018-01-07T04:41:55.806Z,56.3
2018-01-07T04:42:55.715Z,56.3
2018-01-07T04:43:55.647Z,56.3
2018-01-07T04:44:55.597Z,56.3
2018-01-07T04:45:55.529Z,56.3
2018-01-07T04:46:55.438Z,56.3
2018-01-07T04:47:55.374Z,56.3
2018-01-07T04:48:55.319Z,56.3
2018-01-07T04:49:55.250Z,56.3
2018-01-07T04:50:55.161Z,56.3
2018-01-07T04:51:55.113Z,56.3
2018-01-07T04:52:55.023Z,56.3
2018-01-07T04:53:54.953Z,56.3
2018-01-07T04:54:54.903Z,56.3
2018-01-07T04:55:54.834Z,56.3
2018-01-07T04:56:54.746Z,56.2
2018-01-07T04:57:54.677Z,56.3
2018-01-07T04:58:54.628Z,56.2
2018-01-07T04:59:54.539Z,56.2
2018-01-07T05:00:54.489Z,56.1
2018-01-07T05:01:54.417Z,55.7
2018-01-07T05:02:54.330Z,56
2018-01-07T05:03:54.260Z,56
2018-01-07T05:04:54.209Z,55.6
2018-01-07T05:05:54.142Z,55.8
2018-01-07T05:06:54.053Z,55.8
2018-01-07T05:07:54.002Z,55.8
2018-01-07T05:08:53.914Z,55.9
2018-01-07T05:09:53.845Z,55.9
2018-01-07T05:10:53.799Z,55.8
2018-01-07T05:11:53.728Z,55.9
2018-01-07T05:12:53.637Z,55.7
2018-01-07T05:13:53.568Z,55.9
2018-01-07T05:14:53.518Z,55.9
2018-01-07T05:15:53.450Z,55.8
2018-01-07T05:16:53.360Z,55.8
2018-01-07T05:17:53.294Z,55.8
2018-01-07T05:18:53.240Z,55.9
2018-01-07T05:19:53.172Z,55.9
2018-01-07T05:20:53.083Z,55.8
2018-01-07T05:21:53.017Z,55.8
2018-01-07T05:22:52.965Z,55.8
2018-01-07T05:23:52.880Z,55.8
2018-01-07T05:24:52.824Z,55.8
2018-01-07T05:25:52.760Z,55.8
2018-01-07T05:26:52.668Z,55.8
2018-01-07T05:27:52.599Z,55.8
2018-01-07T05:28:52.550Z,55.8
2018-01-07T05:29:52.480Z,55.8
2018-01-07T05:30:52.392Z,55.8
2018-01-07T05:31:52.341Z,55.8
2018-01-07T05:32:52.252Z,55.8
2018-01-07T05:33:52.184Z,55.8
2018-01-07T05:34:52.134Z,55.8
2018-01-07T05:35:52.069Z,55.8
2018-01-07T05:36:51.979Z,55.8
2018-01-07T05:37:51.907Z,55.7
2018-01-07T05:38:51.856Z,55.7
2018-01-07T05:39:51.768Z,55.7
2018-01-07T05:40:51.720Z,55.7
2018-01-07T05:41:51.650Z,55.7
2018-01-07T05:42:51.561Z,55.7
2018-01-07T05:43:51.491Z,55.7
2018-01-07T05:44:51.444Z,55.7
2018-01-07T05:45:51.373Z,55.7
2018-01-07T05:46:51.285Z,55.7
2018-01-07T05:47:51.213Z,55.6
2018-01-07T05:48:51.165Z,55.6
2018-01-07T05:49:51.097Z,55.6
2018-01-07T05:50:51.007Z,55.6
2018-01-07T05:51:50.936Z,55.6
2018-01-07T05:52:50.889Z,55.6
2018-01-07T05:53:50.817Z,55.6
2018-01-07T05:54:50.729Z,55.6
2018-01-07T05:55:50.679Z,55.6
2018-01-07T05:56:50.591Z,55.6
2018-01-07T05:57:50.523Z,55.6
2018-01-07T05:58:50.470Z,55.6
2018-01-07T05:59:50.404Z,55.6
2018-01-07T06:00:50.314Z,55.6
2018-01-07T06:01:50.244Z,55.1
2018-01-07T06:02:50.195Z,55.3
2018-01-07T06:03:50.105Z,55.4
2018-01-07T06:04:50.057Z,55.1
2018-01-07T06:05:49.984Z,55.1
2018-01-07T06:06:49.902Z,55.3
2018-01-07T06:07:49.829Z,55.1
2018-01-07T06:08:49.778Z,55.3
2018-01-07T06:09:49.714Z,55.4
2018-01-07T06:10:49.620Z,55.2
2018-01-07T06:11:49.571Z,55.3
2018-01-07T06:12:49.486Z,55.1
2018-01-07T06:13:49.413Z,55.2
2018-01-07T06:14:49.364Z,55.4
2018-01-07T06:15:49.298Z,55.2
2018-01-07T06:16:49.206Z,55.2
2018-01-07T06:17:49.136Z,55.3
2018-01-07T06:18:49.086Z,55.1
2018-01-07T06:19:49.021Z,55.2
2018-01-07T06:20:48.928Z,55.1
2018-01-07T06:21:48.860Z,54.9
2018-01-07T06:22:48.813Z,54.8
2018-01-07T06:23:48.739Z,54.5
2018-01-07T06:24:48.652Z,54.7
2018-01-07T06:25:48.585Z,54.4
2018-01-07T06:26:48.523Z,54
2018-01-07T06:27:48.423Z,54.4
2018-01-07T06:28:48.363Z,54.3
2018-01-07T06:29:48.287Z,54.1
2018-01-07T06:30:48.190Z,54.4
2018-01-07T06:31:48.109Z,54.2
2018-01-07T06:32:48.051Z,54
2018-01-07T06:33:47.971Z,54.1
2018-01-07T06:34:47.874Z,53.9
2018-01-07T06:35:47.816Z,54.1
2018-01-07T06:36:47.718Z,54.1
2018-01-07T06:37:47.639Z,53.9
2018-01-07T06:38:47.581Z,54.1
2018-01-07T06:39:47.502Z,54.1
2018-01-07T06:40:47.407Z,54.1
2018-01-07T06:41:47.325Z,54.2
2018-01-07T06:42:47.267Z,54.1
2018-01-07T06:43:47.168Z,54.1
2018-01-07T06:44:47.110Z,54.2
2018-01-07T06:45:47.032Z,53.7
2018-01-07T06:46:46.932Z,53.4
2018-01-07T06:47:46.853Z,53.9
2018-01-07T06:48:46.794Z,53.7
2018-01-07T06:49:46.720Z,53.3
2018-01-07T06:50:46.618Z,53.7
2018-01-07T06:51:46.559Z,53.5
2018-01-07T06:52:46.465Z,53.5
2018-01-07T06:53:46.383Z,53.6
2018-01-07T06:54:46.325Z,53.6
2018-01-07T06:55:46.247Z,53.6
2018-01-07T06:56:46.148Z,53.6
2018-01-07T06:57:46.069Z,53.4
2018-01-07T06:58:46.009Z,53.7
2018-01-07T06:59:45.912Z,53.7
2018-01-07T07:00:45.855Z,53.5
2018-01-07T07:01:45.774Z,53.1
2018-01-07T07:02:45.677Z,53.1
2018-01-07T07:03:45.605Z,53.4
2018-01-07T07:04:45.538Z,53.2
2018-01-07T07:05:45.471Z,52.9
2018-01-07T07:06:45.363Z,53.3
2018-01-07T07:07:45.309Z,53.1
2018-01-07T07:08:45.213Z,53.2
2018-01-07T07:09:45.128Z,53.4
2018-01-07T07:10:45.072Z,53.2
2018-01-07T07:11:44.989Z,53.2
2018-01-07T07:12:44.892Z,53.1
2018-01-07T07:13:44.816Z,52.9
2018-01-07T07:14:44.756Z,53.1
2018-01-07T07:15:44.656Z,53.1
2018-01-07T07:16:44.597Z,52.9
2018-01-07T07:17:44.525Z,53.1
2018-01-07T07:18:44.420Z,53
2018-01-07T07:19:44.343Z,52.9
2018-01-07T07:20:44.285Z,53
2018-01-07T07:21:44.204Z,52.9
2018-01-07T07:22:44.107Z,52.9
2018-01-07T07:23:44.028Z,53
2018-01-07T07:24:43.973Z,52.9
2018-01-07T07:25:43.890Z,52.9
2018-01-07T07:26:43.796Z,53.1
2018-01-07T07:27:43.718Z,53
2018-01-07T07:28:43.655Z,53.1
2018-01-07T07:29:43.577Z,53.1
2018-01-07T07:30:43.481Z,53.1
2018-01-07T07:31:43.421Z,53.1
2018-01-07T07:32:43.321Z,53.1
2018-01-07T07:33:43.242Z,53.1
2018-01-07T07:34:43.184Z,53.3
2018-01-07T07:35:43.106Z,53.2
2018-01-07T07:36:43.010Z,53.1
2018-01-07T07:37:42.928Z,53.3
2018-01-07T07:38:42.868Z,53.3
2018-01-07T07:39:42.780Z,53.3
2018-01-07T07:40:42.717Z,53.4
2018-01-07T07:41:42.636Z,53.5
2018-01-07T07:42:42.536Z,53.4
2018-01-07T07:43:42.457Z,53.6
2018-01-07T07:44:42.402Z,53.7
2018-01-07T07:45:42.318Z,53.7
2018-01-07T07:46:42.221Z,53.8
2018-01-07T07:47:42.164Z,53.8
2018-01-07T07:48:42.066Z,53.9
2018-01-07T07:49:41.985Z,54
2018-01-07T07:50:41.925Z,54
2018-01-07T07:51:41.849Z,54.1
2018-01-07T07:52:41.754Z,54.2
2018-01-07T07:53:41.671Z,54.3
2018-01-07T07:54:41.623Z,54.3
2018-01-07T07:55:41.531Z,54.4
2018-01-07T07:56:41.434Z,54.5
2018-01-07T07:57:41.358Z,54.5
2018-01-07T07:58:41.299Z,54.6
2018-01-07T07:59:41.224Z,54.8
2018-01-07T08:00:41.123Z,54.8
2018-01-07T08:01:41.045Z,54.8
2018-01-07T08:02:40.989Z,54.8
2018-01-07T08:03:40.891Z,54.9
2018-01-07T08:04:40.828Z,54.8
2018-01-07T08:05:40.747Z,54.7
2018-01-07T08:06:40.649Z,54.9
2018-01-07T08:07:40.571Z,54.9
2018-01-07T08:08:40.512Z,54.9
2018-01-07T08:09:40.440Z,55.1
2018-01-07T08:10:40.335Z,55.1
2018-01-07T08:11:40.277Z,55.1
2018-01-07T08:12:40.179Z,55.3
2018-01-07T08:13:40.100Z,55.3
2018-01-07T08:14:40.041Z,55.4
2018-01-07T08:15:39.962Z,55.4
2018-01-07T08:16:39.865Z,55.5
2018-01-07T08:17:39.788Z,55.6
2018-01-07T08:18:39.728Z,55.7
2018-01-07T08:19:39.629Z,55.6
2018-01-07T08:20:39.569Z,55.6
2018-01-07T08:21:39.493Z,55.8
2018-01-07T08:22:39.394Z,55.8
2018-01-07T08:23:39.317Z,55.8
2018-01-07T08:24:39.259Z,55.9
2018-01-07T08:25:39.177Z,55.9
2018-01-07T08:26:39.080Z,55.7
2018-01-07T08:27:39.010Z,55.6
2018-01-07T08:28:38.946Z,55.8
2018-01-07T08:29:38.863Z,55.8
2018-01-07T08:30:38.770Z,55.8
2018-01-07T08:31:38.687Z,55.9
2018-01-07T08:32:38.628Z,55.9
2018-01-07T08:33:38.551Z,56
2018-01-07T08:34:38.453Z,56.1
2018-01-07T08:35:38.398Z,56.1
2018-01-07T08:36:38.303Z,56.2
2018-01-07T08:37:38.222Z,56.2
2018-01-07T08:38:38.160Z,56.2
2018-01-07T08:39:38.081Z,56.2
2018-01-07T08:40:37.984Z,56.3
2018-01-07T08:41:37.905Z,56.3
2018-01-07T08:42:37.847Z,56.2
2018-01-07T08:43:37.746Z,56.2
2018-01-07T08:44:37.688Z,56.3
2018-01-07T08:45:37.610Z,56.4
2018-01-07T08:46:37.517Z,56.3
2018-01-07T08:47:37.433Z,56.4
2018-01-07T08:48:37.377Z,56.4
2018-01-07T08:49:37.299Z,55.9
2018-01-07T08:50:37.197Z,55.6
2018-01-07T08:51:37.139Z,55.8
2018-01-07T08:52:37.040Z,55.7
2018-01-07T08:53:36.971Z,55.1
2018-01-07T08:54:36.901Z,55.2
2018-01-07T08:55:36.823Z,55.3
2018-01-07T08:56:36.727Z,55.2
2018-01-07T08:57:36.647Z,55.1
2018-01-07T08:58:36.590Z,55.1
2018-01-07T08:59:36.509Z,55.2
2018-01-07T09:00:36.423Z,55.1
2018-01-07T09:01:36.342Z,54.8
2018-01-07T09:02:36.280Z,54.8
2018-01-07T09:03:36.206Z,55
2018-01-07T09:04:36.098Z,54.9
2018-01-07T09:05:36.020Z,54.8
2018-01-07T09:06:35.961Z,54.9
2018-01-07T09:07:35.864Z,54.9
2018-01-07T09:08:35.805Z,54.9
2018-01-07T09:09:35.726Z,54.8
2018-01-07T09:10:35.629Z,54.6
2018-01-07T09:11:35.550Z,54.7
2018-01-07T09:12:35.490Z,54.6
2018-01-07T09:13:35.418Z,54.6
2018-01-07T09:14:35.316Z,54.6
2018-01-07T09:15:35.257Z,54.6
2018-01-07T09:16:35.158Z,54.5
2018-01-07T09:17:35.085Z,54.6
2018-01-07T09:18:35.021Z,54.6
2018-01-07T09:19:34.941Z,54.8
2018-01-07T09:20:34.847Z,54.7
2018-01-07T09:21:34.768Z,54.7
2018-01-07T09:22:34.709Z,54.6
2018-01-07T09:23:34.609Z,54.7
2018-01-07T09:24:34.556Z,54.8
2018-01-07T09:25:34.481Z,54.8
2018-01-07T09:26:34.374Z,54.9
2018-01-07T09:27:34.295Z,54.9
2018-01-07T09:28:34.238Z,54.9
2018-01-07T09:29:34.163Z,55
2018-01-07T09:30:34.063Z,55.1
2018-01-07T09:31:33.982Z,55
2018-01-07T09:32:33.924Z,55.1
2018-01-07T09:33:33.848Z,55.1
2018-01-07T09:34:33.748Z,55.1
2018-01-07T09:35:33.669Z,55.2
2018-01-07T09:36:33.610Z,55.3
2018-01-07T09:37:33.539Z,55.4
2018-01-07T09:38:33.437Z,55.4
2018-01-07T09:39:33.374Z,55.5
2018-01-07T09:40:33.283Z,55.6
2018-01-07T09:41:33.198Z,55.6
2018-01-07T09:42:33.140Z,55.6
2018-01-07T09:43:33.063Z,55.7
2018-01-07T09:44:32.963Z,55.8
2018-01-07T09:45:32.923Z,55.8
2018-01-07T09:46:32.828Z,55.8
2018-01-07T09:47:32.736Z,55.9
2018-01-07T09:48:32.674Z,56
2018-01-07T09:49:32.596Z,56
2018-01-07T09:50:32.512Z,56.1
2018-01-07T09:51:32.415Z,56.2
2018-01-07T09:52:32.356Z,56.3
2018-01-07T09:53:32.276Z,56.3
2018-01-07T09:54:32.179Z,56.4
2018-01-07T09:55:32.127Z,56.4
2018-01-07T09:56:32.027Z,56.4
2018-01-07T09:57:31.958Z,56.4
2018-01-07T09:58:31.885Z,56.3
2018-01-07T09:59:31.812Z,56.4
2018-01-07T10:00:31.708Z,56.4
2018-01-07T10:01:31.638Z,56.3
2018-01-07T10:02:31.573Z,56.3
2018-01-07T10:03:31.492Z,56.2
2018-01-07T10:04:31.395Z,56
2018-01-07T10:05:31.320Z,55.9
2018-01-07T10:06:31.261Z,55.9
2018-01-07T10:07:31.181Z,55.9
2018-01-07T10:08:31.083Z,55.8
2018-01-07T10:09:31.004Z,55.8
2018-01-07T10:10:30.951Z,55.8
2018-01-07T10:11:30.855Z,55.8
2018-01-07T10:12:30.795Z,55.8
2018-01-07T10:13:30.709Z,55.9
2018-01-07T10:14:30.624Z,55.9
2018-01-07T10:15:30.534Z,55.9
2018-01-07T10:16:30.474Z,55.9
2018-01-07T10:17:30.397Z,56
2018-01-07T10:18:30.306Z,56
2018-01-07T10:19:30.241Z,56
2018-01-07T10:20:30.142Z,56.1
2018-01-07T10:21:30.064Z,56.2
2018-01-07T10:22:30.005Z,56.2
2018-01-07T10:23:29.926Z,56.3
2018-01-07T10:24:29.830Z,56.3
2018-01-07T10:25:29.750Z,56.3
2018-01-07T10:26:29.692Z,56.4
2018-01-07T10:27:29.595Z,56.4
2018-01-07T10:28:29.533Z,56.5
2018-01-07T10:29:29.457Z,56.5
2018-01-07T10:30:29.358Z,56.6
2018-01-07T10:31:29.280Z,56.6
2018-01-07T10:32:29.221Z,56.8
2018-01-07T10:33:29.141Z,56.8
2018-01-07T10:34:29.044Z,56.8
2018-01-07T10:35:28.966Z,56.8
2018-01-07T10:36:28.908Z,56.9
2018-01-07T10:37:28.829Z,56.9
2018-01-07T10:38:28.730Z,56.9
2018-01-07T10:39:28.651Z,56.9
2018-01-07T10:40:28.592Z,56.8
2018-01-07T10:41:28.521Z,56.8
2018-01-07T10:42:28.417Z,56.8
2018-01-07T10:43:28.356Z,56.8
2018-01-07T10:44:28.263Z,56.6
2018-01-07T10:45:28.182Z,56.6
2018-01-07T10:46:28.123Z,56.6
2018-01-07T10:47:28.044Z,56.5
2018-01-07T10:48:27.946Z,56.4
2018-01-07T10:49:27.867Z,56.4
2018-01-07T10:50:27.807Z,56.4
2018-01-07T10:51:27.710Z,56.3
2018-01-07T10:52:27.651Z,56.4
2018-01-07T10:53:27.574Z,56.4
2018-01-07T10:54:27.475Z,56.3
2018-01-07T10:55:27.397Z,56.3
2018-01-07T10:56:27.340Z,56.2
2018-01-07T10:57:27.267Z,56.1
2018-01-07T10:58:27.161Z,56.1
2018-01-07T10:59:27.104Z,56.1
2018-01-07T11:00:27.006Z,56
2018-01-07T11:01:26.936Z,55.7
2018-01-07T11:02:26.867Z,55.3
2018-01-07T11:03:26.790Z,55
2018-01-07T11:04:26.693Z,54.9
2018-01-07T11:05:26.613Z,54.4
2018-01-07T11:06:26.556Z,53.9
2018-01-07T11:07:26.468Z,53.6
2018-01-07T11:08:26.404Z,53.3
2018-01-07T11:09:26.320Z,53.3
2018-01-07T11:10:26.225Z,53.2
2018-01-07T11:11:26.145Z,52.9
2018-01-07T11:12:26.086Z,52.6
2018-01-07T11:13:26.009Z,52.8
2018-01-07T11:14:25.910Z,52.4
2018-01-07T11:15:25.853Z,52.4
2018-01-07T11:16:25.752Z,52.7
2018-01-07T11:17:25.675Z,52.4
2018-01-07T11:18:25.618Z,52.4
2018-01-07T11:19:25.538Z,52.6
2018-01-07T11:20:25.443Z,52.5
2018-01-07T11:21:25.371Z,52.6
2018-01-07T11:22:25.306Z,52.7
2018-01-07T11:23:25.211Z,52.6
2018-01-07T11:24:25.146Z,52.6
2018-01-07T11:25:25.069Z,52.7
2018-01-07T11:26:24.972Z,52.7
2018-01-07T11:27:24.896Z,52.7
2018-01-07T11:28:24.834Z,52.7
2018-01-07T11:29:24.753Z,52.8
2018-01-07T11:30:24.657Z,52.8
2018-01-07T11:31:24.598Z,52.8
2018-01-07T11:32:24.499Z,52.6
2018-01-07T11:33:24.422Z,52.6
2018-01-07T11:34:24.362Z,52.8
2018-01-07T11:35:24.285Z,52.8
2018-01-07T11:36:24.186Z,52.8
2018-01-07T11:37:24.108Z,52.8
2018-01-07T11:38:24.050Z,52.8
2018-01-07T11:39:24.015Z,52.9
2018-01-07T11:40:23.874Z,52.9
2018-01-07T11:41:23.794Z,53
2018-01-07T11:42:23.736Z,53.1
2018-01-07T11:43:23.658Z,53.2
2018-01-07T11:44:23.559Z,53.3
2018-01-07T11:45:23.484Z,53.3
2018-01-07T11:46:23.421Z,53.3
2018-01-07T11:47:23.324Z,53.3
2018-01-07T11:48:23.266Z,53.3
2018-01-07T11:49:23.185Z,53.4
2018-01-07T11:50:23.089Z,53.5
2018-01-07T11:51:23.010Z,53.4
2018-01-07T11:52:22.950Z,52.9
2018-01-07T11:53:22.874Z,52.8
2018-01-07T11:54:22.777Z,52.8
2018-01-07T11:55:22.723Z,52.4
2018-01-07T11:56:22.618Z,52.6
2018-01-07T11:57:22.540Z,51.9
2018-01-07T11:58:22.481Z,52
2018-01-07T11:59:22.404Z,52.1
2018-01-07T12:00:22.305Z,52
2018-01-07T12:01:22.234Z,52
2018-01-07T12:02:22.169Z,51.7
2018-01-07T12:03:22.076Z,51.8
2018-01-07T12:04:22.010Z,51.9
2018-01-07T12:05:21.934Z,51.8
2018-01-07T12:06:21.836Z,51.8
2018-01-07T12:07:21.756Z,51.7
2018-01-07T12:08:21.700Z,51.8
2018-01-07T12:09:21.619Z,51.7
2018-01-07T12:10:21.533Z,51.8
2018-01-07T12:11:21.449Z,51.6
2018-01-07T12:12:21.386Z,51.8
2018-01-07T12:13:21.306Z,51.8
2018-01-07T12:14:21.208Z,51.8
2018-01-07T12:15:21.132Z,51.8
2018-01-07T12:16:21.072Z,51.8
2018-01-07T12:17:20.994Z,51.9
2018-01-07T12:18:20.895Z,52
2018-01-07T12:19:20.838Z,51.8
2018-01-07T12:20:20.739Z,51.9
2018-01-07T12:21:20.661Z,52
2018-01-07T12:22:20.602Z,52.1
2018-01-07T12:23:20.524Z,52.1
2018-01-07T12:24:20.428Z,52.1
2018-01-07T12:25:20.347Z,52
2018-01-07T12:26:20.289Z,52
2018-01-07T12:27:20.191Z,51.9
2018-01-07T12:28:20.133Z,52.1
2018-01-07T12:29:20.056Z,52.2
2018-01-07T12:30:19.964Z,52.2
2018-01-07T12:31:19.886Z,52.3
2018-01-07T12:32:19.820Z,52.3
2018-01-07T12:33:19.740Z,52.3
2018-01-07T12:34:19.651Z,52.3
2018-01-07T12:35:19.586Z,52.4
2018-01-07T12:36:19.486Z,52.6
2018-01-07T12:37:19.408Z,52.6
2018-01-07T12:38:19.351Z,52.7
2018-01-07T12:39:19.271Z,52.7
2018-01-07T12:40:19.174Z,52.8
2018-01-07T12:41:19.096Z,52.8
2018-01-07T12:42:19.046Z,52.9
2018-01-07T12:43:18.962Z,52.9
2018-01-07T12:44:18.862Z,53.1
2018-01-07T12:45:18.784Z,53.1
2018-01-07T12:46:18.731Z,53.1
2018-01-07T12:47:18.648Z,53.2
2018-01-07T12:48:18.550Z,53.3
2018-01-07T12:49:18.471Z,53.3
2018-01-07T12:50:18.412Z,53.4
2018-01-07T12:51:18.314Z,53.4
2018-01-07T12:52:18.257Z,53.5
2018-01-07T12:53:18.177Z,53.6
2018-01-07T12:54:18.083Z,53.6
2018-01-07T12:55:18.001Z,53.7
2018-01-07T12:56:17.943Z,53.4
2018-01-07T12:57:17.866Z,53.6
2018-01-07T12:58:17.768Z,53.4
2018-01-07T12:59:17.728Z,53.7
2018-01-07T13:00:17.610Z,53.6
2018-01-07T13:01:17.533Z,53.4
2018-01-07T13:02:17.474Z,53.3
2018-01-07T13:03:17.396Z,53.4
2018-01-07T13:04:17.299Z,53.4
2018-01-07T13:05:17.223Z,53.6
2018-01-07T13:06:17.161Z,53.5
2018-01-07T13:07:17.062Z,53.4
2018-01-07T13:08:17.007Z,53.6
2018-01-07T13:09:16.926Z,53.6
2018-01-07T13:10:16.828Z,53.6
2018-01-07T13:11:16.749Z,53.6
2018-01-07T13:12:16.693Z,53.7
2018-01-07T13:13:16.611Z,53.7
2018-01-07T13:14:16.515Z,53.8
2018-01-07T13:15:16.437Z,53.8
2018-01-07T13:16:16.378Z,53.9
2018-01-07T13:17:16.318Z,53.9
2018-01-07T13:18:16.203Z,53.9
2018-01-07T13:19:16.124Z,53.9
2018-01-07T13:20:16.063Z,54